createdAt,value
2023-06-21T00:00:13.359Z,100948.19
2023-06-21T00:02:15.500Z,100948.41
2023-06-21T00:04:17.356Z,100944.22
2023-06-21T00:06:19.190Z,100950.75
2023-06-21T00:08:20.852Z,100952.84
2023-06-21T00:10:24.610Z,100940.41
2023-06-21T00:12:27.056Z,100952.41
2023-06-21T00:14:28.583Z,100949.88
2023-06-21T00:16:30.016Z,100937.47
2023-06-21T00:18:31.479Z,100945.06
2023-06-21T00:20:33.089Z,100944.22
2023-06-21T00:22:36.504Z,100948.84
2023-06-21T00:24:38.040Z,100946.31
2023-06-21T00:26:39.525Z,100949.28
2023-06-21T00:28:41.080Z,100951.38
2023-06-21T00:30:42.596Z,100952.41
2023-06-21T00:32:44.100Z,100951.78
2023-06-21T00:34:48.083Z,100949.28
2023-06-21T00:36:49.569Z,100946.75
2023-06-21T00:38:51.000Z,100952.22
2023-06-21T00:40:54.286Z,100948.88
2023-06-21T00:42:55.926Z,100958.97
2023-06-21T00:44:57.693Z,100951.00
2023-06-21T00:46:59.282Z,100960.22
2023-06-21T00:49:01.054Z,100956.66
2023-06-21T00:51:02.726Z,100957.69
2023-06-21T00:53:04.246Z,100957.91
2023-06-21T00:55:06.430Z,100958.97
2023-06-21T00:57:08.443Z,100965.50
2023-06-21T00:59:10.444Z,100966.56
2023-06-21T01:01:11.891Z,100966.56
2023-06-21T01:05:22.121Z,100967.84
2023-06-21T01:07:38.862Z,100967.00
2023-06-21T01:09:59.057Z,100964.47
2023-06-21T01:12:07.614Z,100979.19
2023-06-21T01:14:22.975Z,100971.19
2023-06-21T01:16:27.073Z,100971.19
2023-06-21T01:18:29.851Z,100974.13
2023-06-21T01:20:34.999Z,100978.75
2023-06-21T01:22:56.291Z,100986.97
2023-06-21T01:25:10.262Z,100988.03
2023-06-21T01:27:29.724Z,100991.81
2023-06-21T01:29:32.409Z,100992.03
2023-06-21T01:31:34.574Z,100999.41
2023-06-21T01:33:36.685Z,100991.41
2023-06-21T01:35:38.325Z,100990.56
2023-06-21T01:37:43.784Z,100990.56
2023-06-21T01:39:45.933Z,100991.63
2023-06-21T01:41:47.679Z,100987.19
2023-06-21T01:43:49.449Z,100996.47
2023-06-21T01:45:51.408Z,100999.19
2023-06-21T01:47:53.682Z,100998.31
2023-06-21T01:49:55.973Z,101011.16
2023-06-21T01:51:58.092Z,101014.94
2023-06-21T01:53:59.631Z,101024.19
2023-06-21T01:56:02.496Z,101019.78
2023-06-21T01:58:05.230Z,101026.09
2023-06-21T02:00:17.723Z,101024.41
2023-06-21T02:02:20.368Z,101035.34
2023-06-21T02:04:22.338Z,101033.69
2023-06-21T02:06:27.862Z,101044.63
2023-06-21T02:08:29.933Z,101039.34
2023-06-21T02:10:31.948Z,101038.53
2023-06-21T02:12:36.439Z,101043.16
2023-06-21T02:14:39.138Z,101043.97
2023-06-21T02:16:40.682Z,101046.94
2023-06-21T02:18:42.237Z,101049.66
2023-06-21T02:20:43.802Z,101041.69
2023-06-21T02:22:45.832Z,101037.25
2023-06-21T02:24:47.445Z,101032.63
2023-06-21T02:26:48.998Z,101040.84
2023-06-21T02:28:50.593Z,101031.78
2023-06-21T02:30:52.120Z,101024.59
2023-06-21T02:32:53.833Z,101029.25
2023-06-21T02:34:55.448Z,101030.28
2023-06-21T02:36:56.988Z,101033.03
2023-06-21T02:38:58.562Z,101042.28
2023-06-21T02:41:00.049Z,101038.50
2023-06-21T02:43:01.699Z,101038.69
2023-06-21T02:45:03.424Z,101035.97
2023-06-21T02:47:05.126Z,101037.03
2023-06-21T02:49:06.752Z,101030.72
2023-06-21T02:51:08.581Z,101031.75
2023-06-21T02:53:10.131Z,101039.97
2023-06-21T02:55:11.882Z,101044.56
2023-06-21T02:57:13.377Z,101046.47
2023-06-21T02:59:14.997Z,101046.47
2023-06-21T03:01:17.252Z,101050.25
2023-06-21T03:03:18.963Z,101045.63
2023-06-21T03:05:20.835Z,101046.66
2023-06-21T03:07:24.430Z,101051.31
2023-06-21T03:09:25.958Z,101047.72
2023-06-21T03:11:27.468Z,101049.63
2023-06-21T03:13:29.131Z,101051.50
2023-06-21T03:15:30.612Z,101048.78
2023-06-21T03:17:32.233Z,101049.81
2023-06-21T03:19:34.014Z,101051.72
2023-06-21T03:21:35.623Z,101048.16
2023-06-21T03:23:37.141Z,101051.06
2023-06-21T03:25:38.623Z,101054.63
2023-06-21T03:27:40.305Z,101053.78
2023-06-21T03:29:42.164Z,101052.94
2023-06-21T03:31:43.645Z,101060.31
2023-06-21T03:33:45.366Z,101054.84
2023-06-21T03:35:47.895Z,101056.75
2023-06-21T03:37:49.493Z,101060.53
2023-06-21T03:39:51.002Z,101067.88
2023-06-21T03:41:52.897Z,101060.53
2023-06-21T03:43:54.626Z,101065.16
2023-06-21T03:45:56.261Z,101075.25
2023-06-21T03:47:57.803Z,101077.13
2023-06-21T03:49:59.344Z,101088.91
2023-06-21T03:52:00.881Z,101089.13
2023-06-21T03:54:02.354Z,101091.00
2023-06-21T03:56:04.440Z,101099.22
2023-06-21T03:58:06.129Z,101105.72
2023-06-21T04:00:08.184Z,101107.63
2023-06-21T04:02:09.953Z,101113.09
2023-06-21T04:04:11.729Z,101120.44
2023-06-21T04:06:13.801Z,101112.47
2023-06-21T04:08:15.288Z,101116.88
2023-06-21T04:10:17.661Z,101116.25
2023-06-21T04:12:19.209Z,101117.09
2023-06-21T04:14:20.742Z,101132.66
2023-06-21T04:16:22.265Z,101136.41
2023-06-21T04:18:23.750Z,101131.81
2023-06-21T04:20:25.508Z,101143.75
2023-06-21T04:22:27.083Z,101145.66
2023-06-21T04:24:28.794Z,101145.66
2023-06-21T04:26:30.394Z,101150.28
2023-06-21T04:28:32.128Z,101152.16
2023-06-21T04:30:35.886Z,101150.47
2023-06-21T04:32:45.929Z,101153.22
2023-06-21T04:34:49.581Z,101161.41
2023-06-21T04:36:51.504Z,101157.00
2023-06-21T04:38:52.974Z,101162.47
2023-06-21T04:40:54.518Z,101168.97
2023-06-21T04:42:56.483Z,101172.56
2023-06-21T04:44:59.321Z,101169.41
2023-06-21T04:47:01.727Z,101179.06
2023-06-21T04:49:05.181Z,101191.06
2023-06-21T04:51:06.744Z,101198.19
2023-06-21T04:53:08.227Z,101200.09
2023-06-21T04:55:10.511Z,101200.09
2023-06-21T04:57:13.695Z,101202.00
2023-06-21T04:59:15.315Z,101198.41
2023-06-21T05:01:16.876Z,101198.41
2023-06-21T05:03:18.593Z,101203.03
2023-06-21T05:05:20.246Z,101204.94
2023-06-21T05:07:21.761Z,101208.72
2023-06-21T05:09:23.277Z,101216.91
2023-06-21T05:11:24.916Z,101215.84
2023-06-21T05:13:29.138Z,101221.31
2023-06-21T05:15:30.577Z,101216.06
2023-06-21T05:17:32.069Z,101217.94
2023-06-21T05:19:33.646Z,101223.41
2023-06-21T05:21:35.175Z,101219.00
2023-06-21T05:23:36.699Z,101221.72
2023-06-21T05:25:38.224Z,101226.34
2023-06-21T05:27:39.721Z,101231.81
2023-06-21T05:29:41.340Z,101230.97
2023-06-21T05:31:44.094Z,101229.94
2023-06-21T05:33:45.769Z,101236.25
2023-06-21T05:35:47.412Z,101232.84
2023-06-21T05:37:48.913Z,101233.72
2023-06-21T05:39:50.531Z,101232.84
2023-06-21T05:41:51.962Z,101234.72
2023-06-21T05:43:53.496Z,101234.72
2023-06-21T05:45:55.160Z,101229.25
2023-06-21T05:47:59.900Z,101223.81
2023-06-21T05:50:01.455Z,101226.53
2023-06-21T05:52:02.962Z,101226.53
2023-06-21T05:54:04.581Z,101222.97
2023-06-21T05:56:06.060Z,101217.50
2023-06-21T05:58:07.721Z,101228.44
2023-06-21T06:00:10.662Z,101227.59
2023-06-21T06:02:12.291Z,101233.03
2023-06-21T06:04:13.924Z,101233.03
2023-06-21T06:06:16.288Z,101231.38
2023-06-21T06:08:17.726Z,101231.38
2023-06-21T06:10:19.279Z,101231.38
2023-06-21T06:12:22.675Z,101232.22
2023-06-21T06:14:24.368Z,101234.09
2023-06-21T06:16:25.861Z,101240.59
2023-06-21T06:18:28.138Z,101235.97
2023-06-21T06:20:29.842Z,101235.13
2023-06-21T06:22:32.178Z,101239.75
2023-06-21T06:24:33.713Z,101230.72
2023-06-21T06:26:35.423Z,101236.19
2023-06-21T06:28:36.889Z,101236.19
2023-06-21T06:30:38.453Z,101230.72
2023-06-21T06:32:39.904Z,101241.66
2023-06-21T06:34:41.402Z,101235.34
2023-06-21T06:36:42.906Z,101241.66
2023-06-21T06:38:48.185Z,101239.97
2023-06-21T06:40:49.659Z,101233.47
2023-06-21T06:42:51.140Z,101242.69
2023-06-21T06:44:54.124Z,101243.53
2023-06-21T06:46:55.700Z,101248.16
2023-06-21T06:48:57.332Z,101247.31
2023-06-21T06:50:58.959Z,101247.31
2023-06-21T06:53:01.928Z,101253.63
2023-06-21T06:55:05.094Z,101253.63
2023-06-21T06:57:06.880Z,101248.16
2023-06-21T06:59:08.649Z,101257.22
2023-06-21T07:01:10.304Z,101253.63
2023-06-21T07:05:20.543Z,101263.53
2023-06-21T07:07:22.947Z,101271.72
2023-06-21T07:09:25.065Z,101277.19
2023-06-21T07:11:26.672Z,101272.56
2023-06-21T07:13:28.288Z,101276.97
2023-06-21T07:15:29.927Z,101286.03
2023-06-21T07:19:39.729Z,101283.28
2023-06-21T07:21:41.282Z,101286.88
2023-06-21T07:23:42.772Z,101284.97
2023-06-21T07:25:44.278Z,101278.47
2023-06-21T07:27:45.782Z,101275.72
2023-06-21T07:29:47.244Z,101278.47
2023-06-21T07:31:49.541Z,101273.00
2023-06-21T07:33:54.479Z,101277.44
2023-06-21T07:35:56.108Z,101278.28
2023-06-21T07:37:57.635Z,101276.41
2023-06-21T07:39:59.197Z,101282.72
2023-06-21T07:42:13.942Z,101286.28
2023-06-21T07:44:16.389Z,101292.81
2023-06-21T07:46:18.142Z,101290.91
2023-06-21T07:48:21.355Z,101294.47
2023-06-21T07:50:24.432Z,101283.56
2023-06-21T07:52:26.084Z,101272.63
2023-06-21T07:54:27.562Z,101264.41
2023-06-21T07:56:29.090Z,101267.16
2023-06-21T07:58:30.934Z,101266.09
2023-06-21T08:00:32.470Z,101271.56
2023-06-21T08:02:35.258Z,101277.88
2023-06-21T08:04:38.372Z,101276.00
2023-06-21T08:06:42.607Z,101268.34
2023-06-21T08:08:44.170Z,101287.78
2023-06-21T08:10:45.727Z,101285.03
2023-06-21T08:12:47.346Z,101296.81
2023-06-21T08:14:48.813Z,101295.75
2023-06-21T08:16:50.528Z,101300.19
2023-06-21T08:18:52.458Z,101297.03
2023-06-21T08:20:56.626Z,101310.34
2023-06-21T08:22:58.180Z,101304.47
2023-06-21T08:24:59.685Z,101307.81
2023-06-21T08:27:01.311Z,101304.69
2023-06-21T08:29:03.283Z,101298.81
2023-06-21T08:31:04.928Z,101297.59
2023-06-21T08:33:06.551Z,101297.19
2023-06-21T08:35:08.572Z,101302.28
2023-06-21T08:37:10.210Z,101296.59
2023-06-21T08:39:11.725Z,101299.78
2023-06-21T08:41:13.245Z,101289.28
2023-06-21T08:43:14.778Z,101297.28
2023-06-21T08:45:16.286Z,101306.97
2023-06-21T08:47:18.556Z,101306.56
2023-06-21T08:53:32.578Z,101301.97
2023-06-21T08:55:36.562Z,101302.59
2023-06-21T08:57:51.017Z,101307.66
2023-06-21T08:59:57.832Z,101307.28
2023-06-21T09:02:04.315Z,101305.38
2023-06-21T09:04:08.457Z,101316.75
2023-06-21T09:06:16.136Z,101313.81
2023-06-21T09:08:17.790Z,101318.03
2023-06-21T09:10:22.324Z,101314.25
2023-06-21T09:12:26.024Z,101314.06
2023-06-21T09:14:32.465Z,101321.00
2023-06-21T09:16:34.648Z,101318.06
2023-06-21T09:18:38.354Z,101310.50
2023-06-21T09:20:39.807Z,101312.19
2023-06-21T09:22:41.863Z,101309.88
2023-06-21T09:24:45.071Z,101310.53
2023-06-21T09:26:46.786Z,101308.66
2023-06-21T09:28:48.465Z,101310.13
2023-06-21T09:30:50.057Z,101306.13
2023-06-21T09:32:51.976Z,101310.53
2023-06-21T09:34:53.652Z,101314.13
2023-06-21T09:36:55.439Z,101320.25
2023-06-21T09:39:12.995Z,101318.53
2023-06-21T09:46:05.102Z,101312.69
2023-06-21T09:48:06.953Z,101321.56
2023-06-21T09:50:09.248Z,101315.03
2023-06-21T09:52:10.724Z,101326.81
2023-06-21T09:54:12.630Z,101318.63
2023-06-21T09:56:18.210Z,101324.94
2023-06-21T09:58:19.747Z,101324.94
2023-06-21T10:00:21.294Z,101328.50
2023-06-21T10:02:23.076Z,101319.47
2023-06-21T10:04:24.959Z,101304.72
2023-06-21T10:06:29.630Z,101310.19
2023-06-21T10:08:34.656Z,101311.88
2023-06-21T10:10:36.586Z,101316.50
2023-06-21T10:12:38.040Z,101316.50
2023-06-21T10:14:40.612Z,101318.19
2023-06-21T10:16:42.197Z,101314.63
2023-06-21T10:18:43.699Z,101310.19
2023-06-21T10:20:45.328Z,101304.72
2023-06-21T10:22:52.770Z,101303.88
2023-06-21T10:24:57.008Z,101308.28
2023-06-21T10:26:59.120Z,101304.72
2023-06-21T10:29:03.071Z,101307.44
2023-06-21T10:31:05.222Z,101300.06
2023-06-21T10:33:07.800Z,101300.28
2023-06-21T10:35:14.848Z,101306.59
2023-06-21T10:37:22.342Z,101308.50
2023-06-21T10:39:26.192Z,101308.50
2023-06-21T10:41:28.430Z,101309.56
2023-06-21T10:43:30.246Z,101304.09
2023-06-21T10:45:34.426Z,101306.81
2023-06-21T10:47:36.474Z,101302.41
2023-06-21T10:49:38.627Z,101310.59
2023-06-21T10:51:41.695Z,101307.03
2023-06-21T10:53:43.386Z,101307.22
2023-06-21T10:55:45.048Z,101306.19
2023-06-21T10:57:47.668Z,101314.41
2023-06-21T10:59:49.374Z,101308.94
2023-06-21T11:01:51.648Z,101312.69
2023-06-21T11:03:53.398Z,101308.06
2023-06-21T11:06:15.500Z,101307.22
2023-06-21T11:08:17.297Z,101312.69
2023-06-21T11:10:21.309Z,101307.22
2023-06-21T11:12:25.703Z,101300.03
2023-06-21T11:14:30.188Z,101307.22
2023-06-21T11:16:32.963Z,101305.53
2023-06-21T11:18:34.513Z,101303.84
2023-06-21T11:20:49.424Z,101303.84
2023-06-21T11:22:57.894Z,101311.00
2023-06-21T11:25:15.204Z,101310.16
2023-06-21T11:27:17.111Z,101298.38
2023-06-21T11:29:18.631Z,101295.63
2023-06-21T11:31:24.347Z,101292.88
2023-06-21T11:33:30.625Z,101292.88
2023-06-21T11:35:51.172Z,101303.84
2023-06-21T11:37:57.540Z,101298.38
2023-06-21T11:40:06.909Z,101295.63
2023-06-21T11:42:08.459Z,101298.38
2023-06-21T11:44:11.526Z,101296.47
2023-06-21T11:46:23.888Z,101297.31
2023-06-21T11:48:25.461Z,101301.72
2023-06-21T11:50:37.139Z,101304.47
2023-06-21T11:52:38.959Z,101300.88
2023-06-21T11:54:40.570Z,101299.84
2023-06-21T11:56:43.779Z,101305.13
2023-06-21T11:58:46.898Z,101294.38
2023-06-21T12:00:48.754Z,101294.19
2023-06-21T12:02:50.366Z,101294.19
2023-06-21T12:04:52.196Z,101292.28
2023-06-21T12:06:55.188Z,101294.19
2023-06-21T12:08:58.344Z,101283.22
2023-06-21T12:11:00.505Z,101283.22
2023-06-21T12:13:22.219Z,101283.88
2023-06-21T12:15:23.655Z,101279.44
2023-06-21T12:17:25.643Z,101266.31
2023-06-21T12:19:27.221Z,101286.59
2023-06-21T12:21:28.719Z,101289.34
2023-06-21T12:23:30.313Z,101284.72
2023-06-21T12:25:40.801Z,101280.91
2023-06-21T12:27:58.010Z,101286.41
2023-06-21T12:30:01.858Z,101275.22
2023-06-21T12:32:04.668Z,101271.44
2023-06-21T12:34:06.137Z,101280.28
2023-06-21T12:36:27.215Z,101277.34
2023-06-21T12:38:28.719Z,101281.75
2023-06-21T12:40:30.626Z,101277.78
2023-06-21T12:42:32.619Z,101276.72
2023-06-21T12:44:34.151Z,101279.03
2023-06-21T12:46:41.783Z,101271.47
2023-06-21T12:48:44.292Z,101274.63
2023-06-21T12:50:45.933Z,101273.38
2023-06-21T12:52:59.053Z,101269.38
2023-06-21T12:55:02.162Z,101273.59
2023-06-21T12:57:03.769Z,101267.69
2023-06-21T12:59:05.824Z,101240.91
2023-06-21T13:01:07.549Z,101270.66
2023-06-21T13:03:09.470Z,101281.19
2023-06-21T13:05:11.120Z,101277.38
2023-06-21T13:07:12.676Z,101279.06
2023-06-21T13:09:15.130Z,101283.50
2023-06-21T13:11:17.410Z,101282.44
2023-06-21T13:13:18.999Z,101284.13
2023-06-21T13:15:20.469Z,101288.56
2023-06-21T13:17:22.121Z,101290.06
2023-06-21T13:19:26.439Z,101286.25
2023-06-21T13:21:28.894Z,101288.78
2023-06-21T13:23:30.461Z,101292.16
2023-06-21T13:25:32.402Z,101291.09
2023-06-21T13:27:35.515Z,101288.97
2023-06-21T13:29:37.062Z,101285.41
2023-06-21T13:31:38.530Z,101286.06
2023-06-21T13:33:41.009Z,101288.63
2023-06-21T13:35:42.762Z,101287.56
2023-06-21T13:37:44.240Z,101293.88
2023-06-21T13:39:45.775Z,101290.94
2023-06-21T13:41:47.300Z,101290.94
2023-06-21T13:43:49.425Z,101299.78
2023-06-21T13:45:51.113Z,101295.13
2023-06-21T13:47:52.660Z,101287.97
2023-06-21T13:49:54.191Z,101283.34
2023-06-21T13:51:55.965Z,101284.19
2023-06-21T13:53:57.553Z,101283.34
2023-06-21T13:55:59.204Z,101279.53
2023-06-21T13:58:00.756Z,101280.59
2023-06-21T14:00:02.389Z,101270.25
2023-06-21T14:02:05.488Z,101273.00
2023-06-21T14:04:07.270Z,101270.25
2023-06-21T14:06:08.940Z,101275.75
2023-06-21T14:08:10.522Z,101270.25
2023-06-21T14:10:12.683Z,101262.66
2023-06-21T14:12:14.198Z,101269.81
2023-06-21T14:14:15.641Z,101265.19
2023-06-21T14:16:17.094Z,101265.84
2023-06-21T14:18:18.853Z,101273.22
2023-06-21T14:20:23.026Z,101267.53
2023-06-21T14:22:27.595Z,101273.84
2023-06-21T14:24:29.105Z,101279.34
2023-06-21T14:26:31.521Z,101278.06
2023-06-21T14:28:34.852Z,101282.47
2023-06-21T14:30:36.416Z,101284.16
2023-06-21T14:32:38.068Z,101281.22
2023-06-21T14:34:44.479Z,101286.25
2023-06-21T14:36:46.117Z,101290.06
2023-06-21T14:38:48.005Z,101279.09
2023-06-21T14:40:49.915Z,101278.25
2023-06-21T14:42:51.422Z,101275.28
2023-06-21T14:44:52.955Z,101269.81
2023-06-21T14:46:54.530Z,101262.66
2023-06-21T14:48:56.209Z,101268.13
2023-06-21T14:51:00.108Z,101269.81
2023-06-21T14:53:02.154Z,101262.66
2023-06-21T14:55:03.696Z,101264.34
2023-06-21T14:57:05.301Z,101265.38
2023-06-21T14:59:06.817Z,101266.22
2023-06-21T15:01:08.372Z,101264.34
2023-06-21T15:03:10.018Z,101268.13
2023-06-21T15:05:11.557Z,101267.06
2023-06-21T15:07:16.896Z,101262.66
2023-06-21T15:09:18.433Z,101260.56
2023-06-21T15:11:20.868Z,101256.75
2023-06-21T15:13:22.415Z,101263.09
2023-06-21T15:15:23.984Z,101260.13
2023-06-21T15:17:25.511Z,101256.31
2023-06-21T15:19:27.011Z,101251.69
2023-06-21T15:21:28.516Z,101257.78
2023-06-21T15:23:30.102Z,101262.22
2023-06-21T15:25:31.758Z,101258.63
2023-06-21T15:27:34.252Z,101259.25
2023-06-21T15:29:35.727Z,101253.78
2023-06-21T15:31:37.907Z,101259.25
2023-06-21T15:33:41.380Z,101260.94
2023-06-21T15:35:42.898Z,101246.19
2023-06-21T15:37:44.393Z,101257.97
2023-06-21T15:39:45.902Z,101257.97
2023-06-21T15:41:49.125Z,101246.19
2023-06-21T15:43:50.628Z,101247.84
2023-06-21T15:45:53.484Z,101247.84
2023-06-21T15:47:55.145Z,101250.59
2023-06-21T15:49:56.863Z,101256.97
2023-06-21T15:51:58.379Z,101244.28
2023-06-21T15:54:00.102Z,101239.44
2023-06-21T15:56:01.572Z,101240.28
2023-06-21T15:58:02.991Z,101239.44
2023-06-21T16:00:04.833Z,101235.88
2023-06-21T16:02:06.371Z,101234.81
2023-06-21T16:04:07.887Z,101227.63
2023-06-21T16:06:09.679Z,101227.63
2023-06-21T16:08:11.335Z,101225.75
2023-06-21T16:10:13.035Z,101226.59
2023-06-21T16:12:15.181Z,101219.19
2023-06-21T16:14:16.618Z,101229.31
2023-06-21T16:16:18.274Z,101221.09
2023-06-21T16:18:19.976Z,101220.03
2023-06-21T16:20:21.471Z,101220.88
2023-06-21T16:22:23.000Z,101213.72
2023-06-21T16:24:24.680Z,101212.66
2023-06-21T16:26:26.773Z,101210.75
2023-06-21T16:28:28.948Z,101211.81
2023-06-21T16:30:30.584Z,101210.13
2023-06-21T16:32:32.144Z,101212.88
2023-06-21T16:34:33.614Z,101205.50
2023-06-21T16:36:35.380Z,101201.06
2023-06-21T16:38:36.861Z,101196.41
2023-06-21T16:40:38.613Z,101200.22
2023-06-21T16:42:40.289Z,101196.66
2023-06-21T16:44:41.833Z,101197.47
2023-06-21T16:46:43.354Z,101194.75
2023-06-21T16:48:47.599Z,101194.75
2023-06-21T16:50:50.307Z,101187.53
2023-06-21T16:52:51.794Z,101192.84
2023-06-21T16:54:53.264Z,101181.66
2023-06-21T16:57:02.341Z,101184.41
2023-06-21T16:59:06.758Z,101183.34
2023-06-21T17:01:08.830Z,101186.69
2023-06-21T17:03:10.702Z,101186.69
2023-06-21T17:05:12.416Z,101192.19
2023-06-21T17:07:13.925Z,101188.38
2023-06-21T17:09:15.420Z,101190.06
2023-06-21T17:11:17.042Z,101191.75
2023-06-21T17:13:18.542Z,101195.94
2023-06-21T17:15:20.036Z,101193.00
2023-06-21T17:17:21.760Z,101199.13
2023-06-21T17:19:23.278Z,101198.91
2023-06-21T17:21:25.167Z,101190.44
2023-06-21T17:23:26.672Z,101191.28
2023-06-21T17:25:28.372Z,101194.66
2023-06-21T17:27:30.197Z,101190.00
2023-06-21T17:29:31.838Z,101199.06
2023-06-21T17:31:33.486Z,101201.59
2023-06-21T17:33:35.162Z,101198.84
2023-06-21T17:35:36.728Z,101204.56
2023-06-21T17:37:38.269Z,101204.78
2023-06-21T17:39:40.567Z,101203.09
2023-06-21T17:41:42.308Z,101200.34
2023-06-21T17:43:43.944Z,101206.91
2023-06-21T17:45:45.451Z,101205.22
2023-06-21T17:47:47.071Z,101206.28
2023-06-21T17:49:48.693Z,101204.81
2023-06-21T17:51:50.268Z,101188.41
2023-06-21T17:53:52.153Z,101214.13
2023-06-21T17:55:53.601Z,101206.91
2023-06-21T17:57:55.189Z,101203.56
2023-06-21T17:59:56.734Z,101202.72
2023-06-21T18:01:58.293Z,101189.22
2023-06-21T18:04:00.255Z,101197.66
2023-06-21T18:06:02.376Z,101198.72
2023-06-21T18:08:03.961Z,101198.94
2023-06-21T18:10:05.494Z,101199.16
2023-06-21T18:12:08.748Z,101193.91
2023-06-21T18:14:10.526Z,101196.81
2023-06-21T18:16:12.261Z,101200.63
2023-06-21T18:18:13.903Z,101201.91
2023-06-21T18:20:15.437Z,101200.22
2023-06-21T18:22:19.667Z,101198.75
2023-06-21T18:24:25.664Z,101208.03
2023-06-21T18:26:28.432Z,101209.09
2023-06-21T18:28:29.903Z,101206.59
2023-06-21T18:30:31.525Z,101209.50
2023-06-21T18:32:34.431Z,101206.16
2023-06-21T18:34:36.006Z,101209.94
2023-06-21T18:36:37.736Z,101212.06
2023-06-21T18:38:39.222Z,101217.75
2023-06-21T18:40:41.483Z,101212.50
2023-06-21T18:42:43.191Z,101219.88
2023-06-21T18:44:45.402Z,101231.06
2023-06-21T18:46:47.188Z,101227.47
2023-06-21T18:48:50.470Z,101220.50
2023-06-21T18:50:52.338Z,101221.56
2023-06-21T18:52:53.801Z,101227.25
2023-06-21T18:54:55.376Z,101228.31
2023-06-21T18:56:56.928Z,101228.53
2023-06-21T18:58:58.490Z,101224.09
2023-06-21T19:01:00.095Z,101231.47
2023-06-21T19:03:01.785Z,101234.44
2023-06-21T19:05:03.691Z,101238.25
2023-06-21T19:07:05.488Z,101236.56
2023-06-21T19:09:06.981Z,101244.97
2023-06-21T19:11:08.540Z,101233.16
2023-06-21T19:13:11.729Z,101247.88
2023-06-21T19:15:13.326Z,101235.25
2023-06-21T19:17:14.797Z,101238.19
2023-06-21T19:19:16.250Z,101239.25
2023-06-21T19:21:17.863Z,101236.50
2023-06-21T19:23:19.326Z,101241.38
2023-06-21T19:25:20.891Z,101240.53
2023-06-21T19:27:22.706Z,101236.09
2023-06-21T19:29:24.241Z,101246.22
2023-06-21T19:31:25.776Z,101234.41
2023-06-21T19:33:27.362Z,101236.50
2023-06-21T19:35:30.113Z,101237.56
2023-06-21T19:37:31.695Z,101239.44
2023-06-21T19:39:33.255Z,101243.25
2023-06-21T19:41:34.864Z,101241.34
2023-06-21T19:43:36.376Z,101235.25
2023-06-21T19:45:37.838Z,101234.41
2023-06-21T19:47:39.367Z,101235.47
2023-06-21T19:49:42.939Z,101239.25
2023-06-21T19:51:44.434Z,101236.72
2023-06-21T19:53:45.939Z,101245.78
2023-06-21T19:55:47.456Z,101237.78
2023-06-21T19:57:48.968Z,101254.22
2023-06-21T19:59:50.550Z,101240.53
2023-06-21T20:01:52.096Z,101239.91
2023-06-21T20:03:53.606Z,101238.19
2023-06-21T20:05:56.598Z,101246.63
2023-06-21T20:07:58.152Z,101238.63
2023-06-21T20:09:59.773Z,101244.09
2023-06-21T20:12:01.234Z,101246.19
2023-06-21T20:14:02.670Z,101254.41
2023-06-21T20:16:10.203Z,101252.72
2023-06-21T20:18:11.899Z,101253.78
2023-06-21T20:20:13.751Z,101252.09
2023-06-21T20:22:16.693Z,101251.25
2023-06-21T20:24:18.218Z,101250.41
2023-06-21T20:26:19.788Z,101250.41
2023-06-21T20:28:21.673Z,101248.75
2023-06-21T20:30:23.358Z,101247.06
2023-06-21T20:32:25.238Z,101255.28
2023-06-21T20:34:26.808Z,101259.06
2023-06-21T20:36:29.655Z,101266.41
2023-06-21T20:38:32.330Z,101261.97
2023-06-21T20:40:33.875Z,101268.31
2023-06-21T20:42:35.617Z,101256.72
2023-06-21T20:44:39.161Z,101262.19
2023-06-21T20:46:41.152Z,101259.44
2023-06-21T20:48:44.250Z,101265.16
2023-06-21T20:50:46.566Z,101261.56
2023-06-21T20:52:48.285Z,101257.97
2023-06-21T20:54:50.073Z,101261.78
2023-06-21T20:56:52.213Z,101268.09
2023-06-21T20:58:54.524Z,101261.16
2023-06-21T21:00:56.560Z,101263.03
2023-06-21T21:02:58.116Z,101260.31
2023-06-21T21:04:59.626Z,101264.09
2023-06-21T21:07:01.267Z,101266.84
2023-06-21T21:09:03.646Z,101265.16
2023-06-21T21:11:06.021Z,101272.53
2023-06-21T21:13:08.408Z,101268.94
2023-06-21T21:15:10.245Z,101280.91
2023-06-21T21:17:13.187Z,101272.69
2023-06-21T21:19:14.882Z,101273.75
2023-06-21T21:21:16.777Z,101273.75
2023-06-21T21:23:18.317Z,101280.28
2023-06-21T21:25:19.857Z,101282.19
2023-06-21T21:27:21.389Z,101277.75
2023-06-21T21:29:22.938Z,101267.66
2023-06-21T21:31:24.550Z,101277.75
2023-06-21T21:33:26.414Z,101271.44
2023-06-21T21:35:27.912Z,101280.72
2023-06-21T21:37:29.447Z,101286.19
2023-06-21T21:39:30.999Z,101283.66
2023-06-21T21:41:32.513Z,101274.59
2023-06-21T21:43:34.415Z,101277.34
2023-06-21T21:45:35.984Z,101278.38
2023-06-21T21:47:37.632Z,101276.72
2023-06-21T21:49:39.408Z,101286.59
2023-06-21T21:51:41.007Z,101288.72
2023-06-21T21:53:42.813Z,101288.72
2023-06-21T21:55:45.595Z,101295.25
2023-06-21T21:57:47.172Z,101297.97
2023-06-21T21:59:48.615Z,101291.84
2023-06-21T22:01:50.063Z,101301.72
2023-06-21T22:03:51.715Z,101301.72
2023-06-21T22:05:53.791Z,101303.84
2023-06-21T22:07:55.342Z,101302.97
2023-06-21T22:09:56.873Z,101303.16
2023-06-21T22:11:58.403Z,101308.66
2023-06-21T22:14:00.134Z,101304.22
2023-06-21T22:16:02.922Z,101308.66
2023-06-21T22:18:06.870Z,101308.00
2023-06-21T22:20:11.078Z,101310.75
2023-06-21T22:22:12.564Z,101310.75
2023-06-21T22:24:14.335Z,101309.06
2023-06-21T22:26:16.814Z,101308.22
2023-06-21T22:28:18.348Z,101319.38
2023-06-21T22:30:19.808Z,101319.16
2023-06-21T22:32:21.426Z,101324.00
2023-06-21T22:34:25.668Z,101324.00
2023-06-21T22:36:27.337Z,101326.97
2023-06-21T22:38:28.858Z,101332.44
2023-06-21T22:40:30.795Z,101327.97
2023-06-21T22:42:32.446Z,101334.50
2023-06-21T22:44:34.950Z,101328.19
2023-06-21T22:46:38.973Z,101330.06
2023-06-21T22:48:41.143Z,101328.41
2023-06-21T22:50:45.037Z,101331.97
2023-06-21T22:52:48.915Z,101325.88
2023-06-21T22:54:50.408Z,101330.50
2023-06-21T22:56:52.169Z,101327.75
2023-06-21T22:58:53.756Z,101328.81
2023-06-21T23:00:55.289Z,101334.28
2023-06-21T23:02:57.125Z,101335.34
2023-06-21T23:04:59.334Z,101335.34
2023-06-21T23:07:02.316Z,101324.59
2023-06-21T23:09:04.960Z,101327.34
2023-06-21T23:11:08.006Z,101320.16
2023-06-21T23:13:09.586Z,101318.50
2023-06-21T23:15:15.790Z,101328.59
2023-06-21T23:17:17.232Z,101323.13
2023-06-21T23:19:20.419Z,101316.81
2023-06-21T23:21:26.021Z,101314.25
2023-06-21T23:23:30.643Z,101313.19
2023-06-21T23:25:32.262Z,101304.34
2023-06-21T23:27:38.443Z,101306.25
2023-06-21T23:29:43.760Z,101305.41
2023-06-21T23:31:46.394Z,101304.56
2023-06-21T23:33:47.943Z,101301.81